Hlavní strana
METAR-TAF:

METAR-TAF

Letiště :

Samara, Rusko

zeměpisná šířka: 53-12N, zeměpisná délka: 050-09E, výška: 44 m

Aktuální stav počasí

Zpráva byla vytvořena před 41 minutami, v 00:30 UTC
Severní vítr 8 kt
Teplota 5°C
Vlhkost vzduchu 70%
Tlak 1026 hPa
Viditelnost 10 km a více
Polojasno ve výšce 3300 ft

METAR: UWWW 290030Z 36004MPS 9999 SCT033 05/M00 Q1026 R33/CLRD60 NOSIG RMK QFE758/1011

Čas: 05:11 (01:11 UTC)

Předpověď počasí

Zpráva byla vytvořena před 2 hodinami a 20 minutami, v 22:51 UTC
Předpověď platná od 29 v 00 UTC do 29 v 24 UTC
Severní vítr 10 kt s nárazy do 21 kt
Viditelnost 10 km a více
Oblačno až skoro zataženo ve výšce 1600 ft
Dočasný
od 29 v 06 UTC do 29 v 16 UTC
Severovýchodní vítr 14 kt s nárazy do 27 kt

TAF: UWWW 282251Z 2900/2924 36005G11MPS 9999 BKN016 TX10/2911Z TN02/2903Z TEMPO 2906/2916 04007G14MPS

Stav a předpovědi počasí z více než 4 000 letišť (zprávy METAR a TAF).

Červené a žluté tečky na mapě představují dostupné meteorologické stanice.

Když kurzor umístíte na tečku, zobrazí se název stanice.

Pak kliknutím zobrazíte stav a předpověď počasí.

Chcete-li změnit mapu, kliknutím na zelené tlačítko se znaménkem +mapu přiblížíte, kliknutím na zelené tlačítko se znaménkem – mapu oddálíte a kliknutím na zelené šipky přejdete na sousední mapy.


METAR-TAF: